首页
METAR-TAF:

METAR-TAF

机场 :

温贝托·德尔加多机场

里斯本, 葡萄牙

纬度: 38-46N, 经度: 009-08W, 海拔: 114米

当前天气观测

该预报发布于15分钟前的08:30 UTC
风速11节,风向西北,在西转西北之间变化
温度 20°C
湿度 78%
气压 1017 hPa
能见度10公里或以上
少量云层高于1200英尺

METAR: LPPT 140830Z 32011KT 290V350 9999 FEW012 20/16 Q1017

时间: 09:45 (08:45 UTC)

预报

该预报发布于3小时和35分钟前的05:10 UTC
预报有效从14日的 06点(UTC)到 15日的 12点(UTC)
风速8节,风向北转西北
能见度10公里或以上
散云层高于1500英尺
短暂存在
从 14日的 06点(UTC)到 14日的 07点(UTC)
多云层高于800英尺
成为
从 14日的 10点(UTC)到 14日的 13点(UTC)
风速5节,风向多变
能见度10公里或以上
1500米以下无云,无积雨云
成为
从 14日的 14点(UTC)到 14日的 16点(UTC)
风速13节,风向西北
成为
从 14日的 20点(UTC)到 14日的 23点(UTC)
风速7节,风向西北
能见度10公里或以上
散云层高于800英尺
短暂存在
从 15日的 00点(UTC)到 15日的 07点(UTC)
多云层高于300英尺
成为
从 15日的 02点(UTC)到 15日的 04点(UTC)
风速5节,风向多变
成为
从 15日的 08点(UTC)到 15日的 10点(UTC)
散云层高于2000英尺

TAF: LPPT 140510Z 1406/1512 34008KT 9999 SCT015 TEMPO 1406/1407 BKN008 BECMG 1410/1413 VRB05KT CAVOK BECMG 1414/1416 32013KT BECMG 1420/1423 31007KT 9999 SCT008 TEMPO 1500/1507 BKN003 BECMG 1502/1504 VRB05KT BECMG 1508/1510 SCT020

超过4000个机场的气象观测和天气预报(METAR&TAF报告)。

可查询的气象台以黄色和红色小点在地图上表示。

将鼠标移到小点上方,可查看气象台名称。

然后点击查看天气观测和预报。

如需切换地图:点击带黑十字的绿色按钮放大地图;点击带横线的绿色按钮缩小地图;或者点击绿色箭头查看邻近地区的地图。


METAR-TAF: